Time;durP1;ratioP1;P1;durP2;ratioP2;P2;SDS_P1;SDS_P2;PMS_P1;PMS_P2;Temp;Humidity;BMP_temperature;BMP_pressure;BME280_temperature;BME280_humidity;BME280_pressure;Samples;Min_cycle;Max_cycle;Signal;HPM_P1;HPM_P2
2021/12/13 00:00:15;;;;;;;0.40;0.30;;;;;;;6.31;100.00;101765.50;5056622;28;20446;-72
2021/12/13 00:02:53;;;;;;;0.40;0.30;;;;;;;6.34;100.00;101760.72;5056672;28;20829;-72
2021/12/13 00:05:24;;;;;;;0.40;0.30;;;;;;;6.34;100.00;101760.72;5056606;28;20480;-72
2021/12/13 00:07:56;;;;;;;0.40;0.30;;;;;;;6.40;100.00;101765.13;5056466;28;20469;-72
2021/12/13 00:10:30;;;;;;;0.40;0.30;;;;;;;6.38;100.00;101764.56;5056039;28;20954;-72
2021/12/13 00:13:02;;;;;;;1.03;1.03;;;;;;;6.37;100.00;101763.72;5056441;28;20924;-72
2021/12/13 00:15:33;;;;;;;1.80;1.70;;;;;;;6.41;100.00;101772.94;5056385;28;20427;-72
2021/12/13 00:18:04;;;;;;;0.40;0.20;;;;;;;6.43;100.00;101775.41;5056271;28;20454;-72
2021/12/13 00:20:38;;;;;;;0.40;0.30;;;;;;;6.44;100.00;101777.03;5055960;28;20779;-72
2021/12/13 00:23:13;;;;;;;0.40;0.30;;;;;;;6.44;100.00;101777.03;5056297;28;20430;-72
2021/12/13 00:25:42;;;;;;;0.40;0.30;;;;;;;6.45;100.00;101773.28;5056204;28;20843;-72
2021/12/13 00:28:13;;;;;;;0.40;0.30;;;;;;;6.45;100.00;101770.56;5056057;28;20454;-72
2021/12/13 00:30:50;;;;;;;0.40;0.30;;;;;;;6.43;100.00;101778.09;5055778;28;20441;-72
2021/12/13 00:33:29;;;;;;;0.40;0.30;;;;;;;6.42;100.00;101777.28;5056013;28;20465;-72
2021/12/13 00:36:02;;;;;;;0.40;0.30;;;;;;;6.42;100.00;101784.50;5056031;28;20422;-72
2021/12/13 00:38:32;;;;;;;0.40;0.30;;;;;;;6.43;100.00;101780.78;5055588;28;20986;-72
2021/12/13 00:41:04;;;;;;;0.40;0.30;;;;;;;6.43;100.00;101780.78;5055910;28;20442;-72
2021/12/13 00:43:36;;;;;;;0.40;0.30;;;;;;;6.40;100.00;101782.06;5055900;28;20426;-72
2021/12/13 00:46:08;;;;;;;0.40;0.20;;;;;;;6.44;100.00;101779.72;5055837;28;20419;-72
2021/12/13 00:48:39;;;;;;;0.60;0.53;;;;;;;6.44;100.00;101785.09;5055404;28;20975;-72
2021/12/13 00:51:12;;;;;;;0.40;0.30;;;;;;;6.44;100.00;101788.59;5055634;28;20872;-72
2021/12/13 00:53:43;;;;;;;0.40;0.30;;;;;;;6.44;100.00;101787.78;5055694;28;20438;-72
2021/12/13 00:56:42;;;;;;;0.40;0.30;;;;;;;6.40;100.00;101789.34;5055327;28;20908;-72
2021/12/13 00:59:10;;;;;;;0.40;0.20;;;;;;;6.44;100.00;101798.56;5055531;28;20477;-72
2021/12/13 01:01:38;;;;;;;0.40;0.23;;;;;;;6.47;100.00;101804.28;5055508;28;20446;-72
2021/12/13 01:04:13;;;;;;;0.67;0.60;;;;;;;6.49;100.00;101812.91;5055124;28;20453;-72
2021/12/13 01:07:19;;;;;;;0.60;0.53;;;;;;;6.52;100.00;101809.75;5054369;28;20473;-72
2021/12/13 01:10:43;;;;;;;0.40;0.27;;;;;;;6.56;100.00;101816.28;5054939;28;20458;-72
2021/12/13 01:13:17;;;;;;;0.40;0.23;;;;;;;6.56;100.00;101820.84;5055219;28;20485;-72
2021/12/13 01:15:50;;;;;;;0.40;0.30;;;;;;;6.57;100.00;101817.09;5055272;28;20430;-72
2021/12/13 01:18:27;;;;;;;0.40;0.30;;;;;;;6.50;100.00;101825.31;5054878;28;20465;-72
2021/12/13 01:21:04;;;;;;;0.40;0.23;;;;;;;6.48;100.00;101821.25;5055212;28;20476;-73
2021/12/13 01:23:44;;;;;;;0.40;0.30;;;;;;;6.48;100.00;101816.66;5055136;28;20517;-72
2021/12/13 01:26:29;;;;;;;0.40;0.30;;;;;;;6.47;100.00;101822.31;5055149;28;20796;-72
2021/12/13 01:29:00;;;;;;;0.40;0.30;;;;;;;6.45;100.00;101824.41;5054988;28;20519;-71
2021/12/13 01:31:30;;;;;;;0.40;0.23;;;;;;;6.44;100.00;101825.47;5054887;28;20899;-71
2021/12/13 01:33:59;;;;;;;0.40;0.20;;;;;;;6.44;100.00;101825.47;5054949;28;20426;-71
2021/12/13 01:36:40;;;;;;;0.40;0.30;;;;;;;6.48;100.00;101821.25;5054909;28;20454;-71
2021/12/13 01:39:10;;;;;;;0.40;0.30;;;;;;;6.52;100.00;101833.16;5054812;28;20501;-71
2021/12/13 01:41:40;;;;;;;0.40;0.20;;;;;;;6.49;100.00;101833.63;5054758;28;20445;-72
2021/12/13 01:44:12;;;;;;;0.40;0.20;;;;;;;6.51;100.00;101836.91;5054444;28;20450;-71
2021/12/13 01:46:41;;;;;;;0.40;0.30;;;;;;;6.47;100.00;101835.75;5054733;28;20422;-71
2021/12/13 01:49:09;;;;;;;0.40;0.30;;;;;;;6.49;100.00;101833.63;5054562;28;20458;-71
2021/12/13 01:51:37;;;;;;;0.40;0.30;;;;;;;6.50;100.00;101835.25;5054138;28;20458;-71
2021/12/13 01:54:08;;;;;;;0.40;0.30;;;;;;;6.52;100.00;101833.97;5054197;28;20939;-71
2021/12/13 01:56:45;;;;;;;0.40;0.30;;;;;;;6.54;100.00;101831.00;5054185;28;20433;-71
2021/12/13 01:59:49;;;;;;;0.40;0.30;;;;;;;6.55;100.00;101829.94;5054074;28;20998;-71
2021/12/13 02:02:22;;;;;;;0.50;0.40;;;;;;;6.55;100.00;101832.66;5054409;28;20430;-71
2021/12/13 02:04:57;;;;;;;0.40;0.30;;;;;;;6.57;100.00;101842.13;5054379;28;20431;-71
2021/12/13 02:07:25;;;;;;;0.40;0.30;;;;;;;6.57;100.00;101836.75;5054202;28;20470;-72
2021/12/13 02:09:52;;;;;;;0.40;0.30;;;;;;;6.58;100.00;101843.75;5053989;28;20469;-71
2021/12/13 02:12:20;;;;;;;0.40;0.30;;;;;;;6.60;100.00;101843.53;5054055;28;20478;-71
2021/12/13 02:16:55;;;;;;;0.40;0.30;;;;;;;6.60;100.00;101830.06;5053832;28;20465;-71
2021/12/13 02:17:39;;;;;;;0.40;0.30;;;;;;;6.62;100.00;101835.19;5053246;28;20465;-71
2021/12/13 02:20:13;;;;;;;0.40;0.20;;;;;;;6.61;100.00;101842.47;5053737;28;20449;-71
2021/12/13 02:22:42;;;;;;;0.40;0.30;;;;;;;6.61;100.00;101847.84;5053987;28;20789;-71
2021/12/13 02:25:19;;;;;;;0.50;0.40;;;;;;;6.59;100.00;101844.56;5053905;28;20439;-71
2021/12/13 02:27:49;;;;;;;0.40;0.30;;;;;;;6.54;100.00;101844.47;5053869;28;20469;-71
2021/12/13 02:30:23;;;;;;;0.40;0.30;;;;;;;6.52;100.00;101843.91;5053885;28;20512;-71
2021/12/13 02:32:50;;;;;;;0.40;0.30;;;;;;;6.54;100.00;101847.16;5053723;28;20470;-72
2021/12/13 02:35:18;;;;;;;0.40;0.20;;;;;;;6.53;100.00;101840.16;5053727;28;20438;-72
2021/12/13 02:37:46;;;;;;;0.40;0.30;;;;;;;6.54;100.00;101850.69;5053660;28;20466;-72
2021/12/13 02:40:15;;;;;;;0.40;0.30;;;;;;;6.58;100.00;101853.69;5053694;28;20442;-72
2021/12/13 02:42:42;;;;;;;0.40;0.30;;;;;;;6.62;100.00;101852.16;5053600;28;20442;-72
2021/12/13 02:45:14;;;;;;;3.50;3.30;;;;;;;6.64;100.00;101847.38;5053554;28;20442;-72
2021/12/13 02:47:47;;;;;;;0.40;0.30;;;;;;;6.67;100.00;101844.16;5053755;28;20528;-72
2021/12/13 02:50:21;;;;;;;0.40;0.30;;;;;;;6.69;100.00;101849.31;5053563;28;20431;-72
2021/12/13 02:52:50;;;;;;;0.93;0.93;;;;;;;6.70;100.00;101851.75;5053131;28;20971;-72
2021/12/13 02:55:23;;;;;;;0.40;0.30;;;;;;;6.71;100.00;101848.00;5053432;28;20453;-72
2021/12/13 02:57:52;;;;;;;0.40;0.30;;;;;;;6.71;100.00;101836.41;5053079;28;20991;-72
2021/12/13 03:00:25;;;;;;;0.40;0.27;;;;;;;6.70;100.00;101849.06;5053305;28;20449;-72
2021/12/13 03:02:55;;;;;;;0.40;0.20;;;;;;;6.66;100.00;101844.41;5053328;28;20422;-72
2021/12/13 03:05:26;;;;;;;0.40;0.30;;;;;;;6.68;100.00;101848.47;5053321;28;20442;-72
2021/12/13 03:07:57;;;;;;;0.40;0.30;;;;;;;6.71;100.00;101850.69;5053238;28;20469;-72
2021/12/13 03:10:29;;;;;;;0.40;0.30;;;;;;;6.70;100.00;101851.75;5052838;28;20951;-72
2021/12/13 03:12:55;;;;;;;0.40;0.20;;;;;;;6.71;100.00;101856.09;5053347;28;20473;-72
2021/12/13 03:15:26;;;;;;;0.40;0.30;;;;;;;6.69;100.00;101849.31;5053159;28;20442;-72
2021/12/13 03:17:56;;;;;;;0.40;0.30;;;;;;;6.68;100.00;101853.88;5052812;28;20979;-72
2021/12/13 03:20:37;;;;;;;0.40;0.20;;;;;;;6.63;100.00;101856.47;5052823;28;20426;-72
2021/12/13 03:23:19;;;;;;;2.93;2.73;;;;;;;6.59;100.00;101858.03;5053154;28;20419;-72
2021/12/13 03:26:24;;;;;;;0.60;0.60;;;;;;;6.62;100.00;101870.19;5053122;28;20423;-72
2021/12/13 03:29:08;;;;;;;0.40;0.30;;;;;;;6.65;100.00;101857.06;5009010;28;20470;-72
2021/12/13 03:31:39;;;;;;;0.40;0.20;;;;;;;6.65;100.00;101865.16;5057267;28;20426;-72
2021/12/13 03:34:09;;;;;;;0.40;0.20;;;;;;;6.67;100.00;101859.50;5057140;28;20489;-72
2021/12/13 03:36:45;;;;;;;0.40;0.20;;;;;;;6.70;100.00;101865.22;5056880;28;20800;-72
2021/12/13 03:39:16;;;;;;;0.40;0.30;;;;;;;6.72;100.00;101867.66;5057054;28;20523;-72
2021/12/13 03:41:46;;;;;;;0.40;0.30;;;;;;;6.72;100.00;101863.09;5057072;28;20437;-72
2021/12/13 03:44:15;;;;;;;0.50;0.50;;;;;;;6.72;100.00;101871.16;5056662;28;20941;-72
2021/12/13 03:46:45;;;;;;;0.40;0.20;;;;;;;6.72;100.00;101867.66;5056920;28;20445;-72
2021/12/13 03:49:12;;;;;;;3.20;1.90;;;;;;;6.71;100.00;101866.84;5056661;28;20457;-72
2021/12/13 03:51:42;;;;;;;0.40;0.20;;;;;;;6.70;100.00;101873.31;5056851;28;20449;-72
2021/12/13 03:54:11;;;;;;;6.63;4.10;;;;;;;6.68;100.00;101872.72;5056715;28;20481;-72
2021/12/13 03:56:42;;;;;;;0.40;0.20;;;;;;;6.67;100.00;101867.59;5056750;28;20446;-72
2021/12/13 03:59:13;;;;;;;0.40;0.20;;;;;;;6.68;100.00;101870.03;5056396;28;21041;-72
2021/12/13 04:01:43;;;;;;;0.40;0.30;;;;;;;6.72;100.00;101867.66;5056673;28;20510;-72
2021/12/13 04:04:13;;;;;;;3.53;1.90;;;;;;;6.73;100.00;101872.81;5056663;28;20426;-72
2021/12/13 04:06:45;;;;;;;0.40;0.30;;;;;;;6.73;100.00;101874.69;5056606;28;20480;-72
2021/12/13 04:09:14;;;;;;;0.40;0.30;;;;;;;6.74;100.00;101881.72;5056243;28;20481;-72
2021/12/13 04:11:44;;;;;;;0.40;0.30;;;;;;;6.75;100.00;101886.84;5056502;28;20430;-72
2021/12/13 04:14:18;;;;;;;0.40;0.30;;;;;;;6.78;100.00;101890.94;5056384;28;20465;-72
2021/12/13 04:17:03;;;;;;;0.40;0.30;;;;;;;6.77;100.00;101890.13;5056416;28;20438;-73
2021/12/13 04:19:41;;;;;;;0.40;0.30;;;;;;;6.76;100.00;101888.47;5056398;28;20427;-72
2021/12/13 04:22:10;;;;;;;0.40;0.30;;;;;;;6.75;100.00;101894.94;5056447;28;20831;-73
2021/12/13 04:24:40;;;;;;;0.70;0.70;;;;;;;6.73;100.00;101891.69;5055927;28;20955;-73
2021/12/13 04:27:15;;;;;;;2.00;1.50;;;;;;;6.70;100.00;101899.41;5056718;28;20446;-72
2021/12/13 04:29:42;;;;;;;0.40;0.30;;;;;;;6.67;100.00;101895.31;5057283;28;20911;-73
2021/12/13 04:32:18;;;;;;;0.40;0.27;;;;;;;6.61;100.00;101890.91;5055764;28;20812;-72
2021/12/13 04:34:45;;;;;;;0.40;0.30;;;;;;;6.61;100.00;101888.22;5055790;28;20429;-73
2021/12/13 04:37:16;;;;;;;0.50;0.40;;;;;;;6.65;100.00;101889.38;5055600;28;20926;-73
2021/12/13 04:39:46;;;;;;;0.40;0.30;;;;;;;6.69;100.00;101892.41;5055892;28;20430;-73
2021/12/13 04:42:17;;;;;;;0.40;0.30;;;;;;;6.70;100.00;101889.47;5055891;28;20442;-73
2021/12/13 04:44:50;;;;;;;0.40;0.30;;;;;;;6.73;100.00;101898.91;5055895;28;20422;-73
2021/12/13 04:47:20;;;;;;;0.40;0.30;;;;;;;6.75;100.00;101897.63;5055783;28;20433;-73
2021/12/13 04:49:52;;;;;;;0.40;0.30;;;;;;;6.79;100.00;101893.38;5056370;28;20439;-73
2021/12/13 04:52:21;;;;;;;0.40;0.30;;;;;;;6.80;100.00;101899.59;5055451;28;20884;-73
2021/12/13 04:54:51;;;;;;;0.40;0.30;;;;;;;6.81;100.00;101895.81;5055606;28;20536;-73
2021/12/13 04:57:21;;;;;;;1.07;1.07;;;;;;;6.80;100.00;101889.63;5055557;28;20462;-73
2021/12/13 04:59:49;;;;;;;0.40;0.27;;;;;;;6.70;100.00;101900.22;5055282;28;20446;-73
2021/12/13 05:02:16;;;;;;;0.40;0.30;;;;;;;6.75;100.00;101900.31;5055543;28;20487;-73
2021/12/13 05:04:43;;;;;;;0.70;0.70;;;;;;;6.76;100.00;101891.16;5055483;28;20479;-73
2021/12/13 05:07:09;;;;;;;0.40;0.30;;;;;;;6.79;100.00;101896.06;5055387;28;20442;-73
2021/12/13 05:09:37;;;;;;;0.40;0.20;;;;;;;6.81;100.00;101896.63;5055124;28;20458;-73
2021/12/13 05:12:13;;;;;;;0.73;0.73;;;;;;;6.83;100.00;101905.31;5055379;28;20480;-73
2021/12/13 05:14:46;;;;;;;0.40;0.30;;;;;;;6.82;100.00;101906.38;5055214;28;20466;-73
2021/12/13 05:17:16;;;;;;;0.40;0.30;;;;;;;6.78;100.00;101915.19;5054945;28;20419;-71
2021/12/13 05:19:46;;;;;;;0.40;0.30;;;;;;;6.72;100.00;101903.47;5055274;28;20422;-72
2021/12/13 05:22:16;;;;;;;0.63;0.63;;;;;;;6.75;100.00;101908.38;5054950;28;20969;-71
2021/12/13 05:24:47;;;;;;;0.40;0.30;;;;;;;6.78;100.00;101907.09;5055139;28;20439;-72
2021/12/13 05:27:15;;;;;;;0.40;0.30;;;;;;;6.80;100.00;101916.56;5055026;28;20430;-72
2021/12/13 05:29:46;;;;;;;0.40;0.30;;;;;;;6.80;100.00;101913.03;5055019;28;21097;-72
2021/12/13 05:32:17;;;;;;;0.40;0.30;;;;;;;6.78;100.00;101909.78;5055048;28;20430;-72
2021/12/13 05:34:48;;;;;;;0.40;0.30;;;;;;;6.78;100.00;101918.69;5054904;28;20474;-72
2021/12/13 05:37:16;;;;;;;0.40;0.30;;;;;;;6.79;100.00;101920.31;5054545;28;20433;-72
2021/12/13 05:39:58;;;;;;;0.40;0.30;;;;;;;6.80;100.00;101924.63;5054602;28;20430;-71
2021/12/13 05:42:35;;;;;;;0.40;0.30;;;;;;;6.80;100.00;101926.50;5054600;28;20422;-72
2021/12/13 05:45:04;;;;;;;0.40;0.30;;;;;;;6.82;100.00;101938.69;5054451;28;20431;-72
2021/12/13 05:47:31;;;;;;;0.40;0.30;;;;;;;6.85;100.00;101934.69;5053957;28;20959;-72
2021/12/13 05:49:57;;;;;;;0.50;0.30;;;;;;;6.87;100.00;101934.44;5054370;28;20453;-72
2021/12/13 05:52:31;;;;;;;0.40;0.30;;;;;;;6.87;100.00;101935.25;5053743;28;20442;-72
2021/12/13 05:55:02;;;;;;;0.40;0.30;;;;;;;6.88;100.00;101936.09;5054524;28;20469;-72
2021/12/13 05:57:34;;;;;;;0.40;0.30;;;;;;;6.89;100.00;101932.31;5054520;28;20466;-72
2021/12/13 06:00:11;;;;;;;0.40;0.30;;;;;;;6.90;100.00;101931.25;5054531;28;20463;-72
2021/12/13 06:03:01;;;;;;;0.40;0.30;;;;;;;6.90;100.00;101942.03;5054474;28;20481;-72
2021/12/13 06:05:30;;;;;;;0.40;0.30;;;;;;;6.83;100.00;101929.53;5054409;28;20427;-72
2021/12/13 06:07:59;;;;;;;0.40;0.30;;;;;;;6.83;100.00;101932.22;5054174;28;20458;-72
2021/12/13 06:10:33;;;;;;;0.40;0.30;;;;;;;6.84;100.00;101938.44;5053882;28;20872;-71
2021/12/13 06:13:03;;;;;;;0.40;0.30;;;;;;;6.83;100.00;101937.63;5053842;28;20434;-71
2021/12/13 06:15:34;;;;;;;0.40;0.30;;;;;;;6.86;100.00;101935.50;5053837;28;20973;-72
2021/12/13 06:18:13;;;;;;;0.40;0.30;;;;;;;6.83;100.00;101944.88;5054078;28;20466;-72
2021/12/13 06:20:44;;;;;;;0.40;0.30;;;;;;;6.79;100.00;101946.44;5054062;28;20426;-71
2021/12/13 06:23:15;;;;;;;0.40;0.30;;;;;;;6.79;100.00;101944.53;5054102;28;20493;-72
2021/12/13 06:25:45;;;;;;;0.40;0.30;;;;;;;6.82;100.00;101951.34;5053994;28;20426;-72
2021/12/13 06:28:20;;;;;;;0.50;0.43;;;;;;;6.83;100.00;101952.97;5053803;28;20863;-72
2021/12/13 06:30:54;;;;;;;0.40;0.30;;;;;;;6.82;100.00;101954.03;5053751;28;20422;-72
2021/12/13 06:33:21;;;;;;;0.40;0.30;;;;;;;6.85;100.00;101960.78;5053461;28;20880;-71
2021/12/13 06:35:49;;;;;;;0.40;0.30;;;;;;;6.83;100.00;101953.78;5053741;28;20461;-71
2021/12/13 06:38:37;;;;;;;0.40;0.20;;;;;;;6.85;100.00;101961.59;5053549;28;20458;-70
2021/12/13 06:41:09;;;;;;;0.40;0.30;;;;;;;6.88;100.00;101965.69;5053426;28;20845;-71
2021/12/13 06:43:39;;;;;;;0.77;0.77;;;;;;;6.88;100.00;101965.69;5053369;28;20896;-72
2021/12/13 06:46:10;;;;;;;0.40;0.20;;;;;;;6.91;100.00;101978.69;5053521;28;20445;-72
2021/12/13 06:48:41;;;;;;;0.40;0.20;;;;;;;6.89;100.00;101981.63;5053322;28;20802;-72
2021/12/13 06:51:10;;;;;;;0.40;0.27;;;;;;;6.90;100.00;101979.72;5053102;28;20903;-72
2021/12/13 06:53:37;;;;;;;0.40;0.20;;;;;;;6.94;100.00;101978.19;5053257;28;20485;-72
2021/12/13 06:56:23;;;;;;;0.40;0.30;;;;;;;6.96;100.00;101984.16;5053321;28;20461;-72
2021/12/13 06:58:52;;;;;;;0.40;0.30;;;;;;;6.95;100.00;101983.34;5052891;28;20979;-72
2021/12/13 07:01:20;;;;;;;0.40;0.30;;;;;;;6.97;100.00;101983.09;5053201;28;20801;-72
2021/12/13 07:03:55;;;;;;;0.40;0.30;;;;;;;7.00;100.00;101988.03;5052037;28;20437;-72
2021/12/13 07:06:23;;;;;;;0.40;0.20;;;;;;;7.01;100.00;101987.75;5052881;28;20837;-72
2021/12/13 07:09:04;;;;;;;0.40;0.30;;;;;;;7.00;100.00;101991.53;5052913;28;20853;-72
2021/12/13 07:11:41;;;;;;;0.40;0.30;;;;;;;7.01;100.00;101989.66;5053128;28;20509;-72
2021/12/13 07:14:13;;;;;;;0.40;0.30;;;;;;;6.98;100.00;101987.44;5053052;28;20477;-72
2021/12/13 07:16:46;;;;;;;0.40;0.20;;;;;;;7.01;100.00;101992.34;5053177;28;20525;-72
2021/12/13 07:19:19;;;;;;;0.40;0.30;;;;;;;7.01;100.00;102000.41;5053111;28;20466;-72
2021/12/13 07:21:54;;;;;;;0.40;0.40;;;;;;;7.04;100.00;102008.84;5053065;28;20454;-74
2021/12/13 07:24:30;;;;;;;0.40;0.30;;;;;;;7.03;100.00;102006.38;5053286;28;20426;-73
2021/12/13 07:27:04;;;;;;;0.40;0.30;;;;;;;7.03;100.00;102009.06;5053074;28;20444;-75
2021/12/13 07:29:37;;;;;;;0.40;0.30;;;;;;;7.02;100.00;102015.53;5052964;28;20525;-71
2021/12/13 07:32:10;;;;;;;0.40;0.30;;;;;;;7.06;100.00;102008.59;5052617;28;20427;-71
2021/12/13 07:34:49;;;;;;;0.40;0.20;;;;;;;7.08;100.00;102014.53;5052790;28;20466;-71
2021/12/13 07:37:16;;;;;;;0.40;0.30;;;;;;;7.00;100.00;102013.06;5052881;28;20434;-71
2021/12/13 07:39:43;;;;;;;0.40;0.20;;;;;;;7.04;100.00;102019.63;5052879;28;20438;-71
2021/12/13 07:42:14;;;;;;;0.40;0.27;;;;;;;7.02;100.00;102026.28;5052542;28;20989;-71
2021/12/13 07:44:44;;;;;;;0.40;0.30;;;;;;;7.01;100.00;102022.78;5052878;28;20422;-72
2021/12/13 07:47:16;;;;;;;0.40;0.30;;;;;;;7.06;100.00;102024.75;5052689;28;20431;-72
2021/12/13 07:49:45;;;;;;;0.40;0.23;;;;;;;7.07;100.00;102018.31;5052894;28;20847;-72
2021/12/13 07:52:24;;;;;;;0.40;0.30;;;;;;;7.06;100.00;102025.56;5052811;28;20438;-72
2021/12/13 07:54:51;;;;;;;0.40;0.30;;;;;;;7.14;100.00;102018.16;5052736;28;20563;-72
2021/12/13 07:57:23;;;;;;;0.40;0.30;;;;;;;7.19;100.00;102020.94;5052641;28;20473;-72
2021/12/13 07:59:51;;;;;;;1.00;1.00;;;;;;;7.25;100.00;102028.03;5052684;28;20436;-72
2021/12/13 08:02:27;;;;;;;0.60;0.60;;;;;;;7.26;100.00;102037.75;5052617;28;20454;-72
2021/12/13 08:04:56;;;;;;;0.40;0.30;;;;;;;7.30;100.00;102033.53;5052669;28;20510;-71
2021/12/13 08:07:26;;;;;;;0.40;0.30;;;;;;;7.33;100.00;102033.84;5052467;28;20550;-72
2021/12/13 08:09:58;;;;;;;0.50;0.40;;;;;;;7.30;100.00;102034.38;5052072;28;20461;-71
2021/12/13 08:12:28;;;;;;;0.40;0.30;;;;;;;7.31;100.00;102036.00;5052267;28;20427;-71
2021/12/13 08:15:14;;;;;;;0.40;0.20;;;;;;;7.32;100.00;102036.81;5053101;28;20485;-71
2021/12/13 08:17:45;;;;;;;0.40;0.30;;;;;;;7.31;100.00;102035.19;5056262;28;20523;-71
2021/12/13 08:20:18;;;;;;;0.40;0.20;;;;;;;7.32;100.00;102037.63;5056192;28;20433;-71
2021/12/13 08:22:49;;;;;;;0.47;0.40;;;;;;;7.38;100.00;102035.81;5055899;28;20904;-71
2021/12/13 08:25:21;;;;;;;0.40;0.30;;;;;;;7.42;100.00;102036.16;5056120;28;20427;-71
2021/12/13 08:27:54;;;;;;;0.97;0.97;;;;;;;7.41;100.00;102045.31;5056346;28;20543;-71
2021/12/13 08:30:26;;;;;;;0.40;0.30;;;;;;;7.45;100.00;102046.47;5056236;28;20414;-71
2021/12/13 08:33:06;;;;;;;0.40;0.30;;;;;;;7.47;100.00;102050.53;5056032;28;20423;-71
2021/12/13 08:35:50;;;;;;;0.40;0.20;;;;;;;7.53;100.00;102054.16;5055804;28;20466;-72
2021/12/13 08:38:36;;;;;;;0.40;0.30;;;;;;;7.55;100.00;102049.31;5055971;28;20855;-71
2021/12/13 08:41:08;;;;;;;0.40;0.30;;;;;;;7.58;100.00;102051.53;5055921;28;20423;-71
2021/12/13 08:43:39;;;;;;;0.40;0.30;;;;;;;7.59;100.00;102058.56;5055665;28;20914;-72
2021/12/13 08:46:06;;;;;;;0.40;0.30;;;;;;;7.62;100.00;102052.69;5055826;28;20430;-72
2021/12/13 08:48:44;;;;;;;0.40;0.30;;;;;;;7.64;100.00;102064.03;5055697;28;20553;-72
2021/12/13 08:51:20;;;;;;;0.40;0.30;;;;;;;7.60;100.00;102062.88;5055471;28;20847;-72
2021/12/13 08:53:57;;;;;;;0.40;0.30;;;;;;;7.61;100.00;102056.41;5055720;28;20851;-70
2021/12/13 08:56:24;;;;;;;0.40;0.30;;;;;;;7.65;100.00;102057.56;5055714;28;20422;-72
2021/12/13 08:58:53;;;;;;;0.40;0.30;;;;;;;7.66;100.00;102059.22;5055746;28;20456;-70
2021/12/13 09:01:20;;;;;;;0.40;0.30;;;;;;;7.68;100.00;102057.09;5055563;28;20441;-70
2021/12/13 09:03:50;;;;;;;0.40;0.30;;;;;;;7.66;100.00;102059.22;5055564;28;20454;-72
2021/12/13 09:06:29;;;;;;;0.40;0.30;;;;;;;7.68;100.00;102064.38;5055812;28;20443;-70
2021/12/13 09:09:03;;;;;;;0.40;0.27;;;;;;;7.69;100.00;102057.91;5055275;28;20480;-70
2021/12/13 09:11:33;;;;;;;0.40;0.30;;;;;;;7.70;100.00;102065.75;5055457;28;20503;-70
2021/12/13 09:14:06;;;;;;;0.40;0.30;;;;;;;7.73;100.00;102064.44;5055513;28;20482;-70
2021/12/13 09:16:46;;;;;;;0.40;0.30;;;;;;;7.72;100.00;102070.91;5055045;28;20437;-70
2021/12/13 09:19:20;;;;;;;0.40;0.27;;;;;;;7.71;100.00;102067.41;5055231;28;20468;-69
2021/12/13 09:21:52;;;;;;;0.40;0.30;;;;;;;7.72;100.00;102068.22;5055254;28;20434;-69
2021/12/13 09:24:25;;;;;;;0.40;0.30;;;;;;;7.76;100.00;102066.66;5055200;28;20427;-70
2021/12/13 09:26:52;;;;;;;0.40;0.30;;;;;;;7.72;100.00;102068.22;5053773;28;20499;-69
2021/12/13 09:29:19;;;;;;;0.40;0.30;;;;;;;7.74;100.00;102072.28;5054990;28;20612;-70
2021/12/13 09:31:45;;;;;;;0.40;0.30;;;;;;;7.77;100.00;102063.69;5055016;28;20442;-70
2021/12/13 09:34:18;;;;;;;0.40;0.30;;;;;;;7.80;100.00;102063.22;5054818;28;20493;-69
2021/12/13 09:36:46;;;;;;;0.40;0.30;;;;;;;7.83;100.00;102060.03;5054969;28;20935;-70
2021/12/13 09:39:17;;;;;;;0.40;0.40;;;;;;;7.83;100.00;102065.44;5054778;28;20462;-70
2021/12/13 09:41:47;;;;;;;0.40;0.30;;;;;;;7.83;100.00;102070.84;5055022;28;20435;-70
2021/12/13 09:44:23;;;;;;;0.40;0.30;;;;;;;7.87;100.00;102075.72;5054956;28;20990;-72
2021/12/13 09:46:59;;;;;;;0.40;0.30;;;;;;;7.88;100.00;102066.56;5054908;28;20868;-70
2021/12/13 09:49:29;;;;;;;0.40;0.30;;;;;;;7.95;100.00;102072.59;5054467;28;20938;-70
2021/12/13 09:52:00;;;;;;;0.40;0.30;;;;;;;7.99;100.00;102069.16;5054706;28;20430;-70
2021/12/13 09:54:30;;;;;;;0.40;0.30;;;;;;;8.05;100.00;102073.56;5054589;28;20493;-70
2021/12/13 09:57:00;;;;;;;0.40;0.30;;;;;;;8.10;100.00;102067.44;5054518;28;20465;-70
2021/12/13 09:59:34;;;;;;;1.17;1.17;;;;;;;8.12;100.00;102065.31;5054193;28;20993;-70
2021/12/13 10:02:03;;;;;;;0.40;0.20;;;;;;;8.17;100.00;102061.88;5054522;28;20427;-70
2021/12/13 10:04:34;;;;;;;0.40;0.30;;;;;;;8.19;100.00;102075.91;5054418;28;20444;-72
2021/12/13 10:07:06;;;;;;;0.40;0.30;;;;;;;8.25;100.00;102072.25;5054246;28;20493;-69
2021/12/13 10:09:35;;;;;;;0.40;0.30;;;;;;;8.31;100.00;102072.06;5054044;28;20458;-69
2021/12/13 10:12:07;;;;;;;0.40;0.23;;;;;;;8.32;100.00;102072.88;5053956;28;20923;-69
2021/12/13 10:14:36;;;;;;;0.40;0.30;;;;;;;8.26;100.00;102068.47;5053879;28;20469;-69
2021/12/13 10:17:05;;;;;;;0.40;0.30;;;;;;;8.28;100.00;102072.56;5055123;28;20446;-69
2021/12/13 10:19:36;;;;;;;0.40;0.30;;;;;;;8.31;100.00;102068.53;5055746;28;20442;-68
2021/12/13 10:22:04;;;;;;;0.40;0.30;;;;;;;8.29;100.00;102071.50;5054096;28;20465;-67
2021/12/13 10:24:34;;;;;;;0.40;0.30;;;;;;;8.35;100.00;102065.09;5054027;28;20496;-68
2021/12/13 10:27:04;;;;;;;0.40;0.30;;;;;;;8.39;100.00;102073.53;5053896;28;20454;-67
2021/12/13 10:29:32;;;;;;;0.40;0.20;;;;;;;8.41;100.00;102067.88;5054963;28;20450;-69
2021/12/13 10:32:02;;;;;;;0.40;0.30;;;;;;;8.40;100.00;102068.97;5053850;28;20449;-69
2021/12/13 10:34:34;;;;;;;0.40;0.30;;;;;;;8.40;100.00;102069.78;5053788;28;20452;-69
2021/12/13 10:37:05;;;;;;;0.40;0.30;;;;;;;8.42;100.00;102062.25;5053834;28;20437;-69
2021/12/13 10:39:36;;;;;;;0.40;0.40;;;;;;;8.45;100.00;102061.75;5053683;28;20418;-69
2021/12/13 10:42:07;;;;;;;0.63;0.63;;;;;;;8.49;100.00;102056.66;5053544;28;20476;-70
2021/12/13 10:44:33;;;;;;;1.00;0.90;;;;;;;8.50;100.00;102059.13;5053791;28;20433;-69
2021/12/13 10:47:05;;;;;;;0.40;0.30;;;;;;;8.56;100.00;102050.00;5053615;28;20450;-69
2021/12/13 10:49:38;;;;;;;0.40;0.30;;;;;;;8.66;100.00;102051.19;5053281;28;20822;-69
2021/12/13 10:52:10;;;;;;;1.80;1.70;;;;;;;8.72;100.00;102056.44;5053605;28;20423;-69
2021/12/13 10:54:40;;;;;;;0.40;0.30;;;;;;;8.78;100.00;102060.81;5053180;28;20833;-69
2021/12/13 10:57:09;;;;;;;0.40;0.20;;;;;;;8.82;100.00;102050.31;5053404;28;20438;-69
2021/12/13 10:59:36;;;;;;;0.40;0.30;;;;;;;8.83;100.00;102062.75;5053432;28;20446;-69
2021/12/13 11:02:08;;;;;;;0.40;0.30;;;;;;;8.82;100.00;102058.44;5052900;28;20815;-69
2021/12/13 11:04:40;;;;;;;0.70;0.70;;;;;;;8.86;100.00;102061.44;5053281;28;20426;-69
2021/12/13 11:07:09;;;;;;;0.40;0.30;;;;;;;8.83;100.00;102071.69;5052897;28;20980;-69
2021/12/13 11:09:37;;;;;;;0.40;0.30;;;;;;;8.87;100.00;102063.06;5053051;28;20473;-69
2021/12/13 11:12:07;;;;;;;0.40;0.30;;;;;;;8.90;100.00;102067.94;5053200;28;20491;-69
2021/12/13 11:14:36;;;;;;;0.40;0.20;;;;;;;8.90;100.00;102068.78;5053110;28;20516;-69
2021/12/13 11:17:07;;;;;;;0.40;0.30;;;;;;;8.92;100.00;102061.25;5053169;28;20448;-69
2021/12/13 11:19:40;;;;;;;0.40;0.30;;;;;;;8.94;100.00;102069.09;5053190;28;20426;-69
2021/12/13 11:22:10;;;;;;;0.40;0.30;;;;;;;8.97;100.00;102063.19;5052914;28;20915;-69
2021/12/13 11:24:41;;;;;;;4.00;3.30;;;;;;;8.98;100.00;102062.09;5053150;28;20797;-69
2021/12/13 11:27:12;;;;;;;0.40;0.30;;;;;;;9.02;100.00;102065.94;5053043;28;20792;-69
2021/12/13 11:29:42;;;;;;;0.40;0.30;;;;;;;9.05;100.00;102068.13;5053105;28;20807;-69
2021/12/13 11:32:44;;;;;;;0.40;0.30;;;;;;;9.12;100.00;102067.91;5053099;28;20883;-69
2021/12/13 11:35:47;;;;;;;0.40;0.30;;;;;;;9.14;100.00;102069.31;5053030;28;20484;-69
2021/12/13 11:38:30;;;;;;;0.40;0.30;;;;;;;9.15;100.00;102073.63;5052985;28;20461;-69
2021/12/13 11:41:20;;;;;;;0.40;0.40;;;;;;;9.19;100.00;102072.06;5053002;28;20434;-69
2021/12/13 11:44:02;;;;;;;0.40;0.30;;;;;;;9.16;100.00;102069.84;5053023;28;20426;-69
2021/12/13 11:47:14;;;;;;;0.40;0.30;;;;;;;9.19;100.00;102066.66;5052851;28;20426;-69
2021/12/13 11:50:13;;;;;;;0.40;0.30;;;;;;;9.20;100.00;102068.28;5053215;28;20806;-69